createdAt,value
2022-12-18T17:27:29.311Z,17.03
2022-12-18T17:28:02.616Z,15.10
2022-12-18T17:28:36.356Z,14.63
2022-12-18T17:29:09.902Z,14.20
2022-12-18T17:29:46.814Z,14.57
2022-12-18T17:30:21.488Z,14.40
2022-12-18T17:30:56.559Z,13.47
2022-12-18T17:31:31.233Z,14.03
2022-12-18T17:32:04.899Z,14.23
2022-12-18T17:32:38.206Z,13.03
2022-12-18T17:33:11.521Z,13.20
2022-12-18T17:33:44.937Z,14.23
2022-12-18T17:34:18.242Z,13.50
2022-12-18T17:34:51.537Z,14.10
2022-12-18T17:35:24.863Z,13.67
2022-12-18T17:36:00.749Z,13.90
2022-12-18T17:36:34.254Z,13.20
2022-12-18T17:37:07.555Z,13.67
2022-12-18T17:37:43.678Z,14.03
2022-12-18T17:38:18.043Z,14.17
2022-12-18T17:38:55.542Z,13.80
2022-12-18T17:39:29.323Z,14.73
2022-12-18T17:40:02.879Z,13.77
2022-12-18T17:40:36.653Z,13.93
2022-12-18T17:41:12.251Z,14.67
2022-12-18T17:41:45.636Z,14.60
2022-12-18T17:42:18.954Z,13.43
2022-12-18T17:42:54.401Z,13.87
2022-12-18T17:43:27.697Z,13.93
2022-12-18T17:44:03.347Z,13.53
2022-12-18T17:44:36.763Z,13.30
2022-12-18T17:45:10.513Z,13.97
2022-12-18T17:45:44.258Z,13.67
2022-12-18T17:46:17.624Z,13.47
2022-12-18T17:46:51.105Z,13.37
2022-12-18T17:47:24.504Z,13.47
2022-12-18T17:47:59.987Z,13.53
2022-12-18T17:48:34.320Z,13.37
2022-12-18T17:49:07.631Z,13.50
2022-12-18T17:49:41.134Z,13.27
2022-12-18T17:50:14.493Z,13.50
2022-12-18T17:50:47.855Z,13.37
2022-12-18T17:51:21.194Z,13.40
2022-12-18T17:51:54.526Z,12.90
2022-12-18T17:52:27.836Z,13.47
2022-12-18T17:53:01.602Z,13.27
2022-12-18T17:53:35.147Z,13.23
2022-12-18T17:54:08.443Z,13.73
2022-12-18T17:54:42.560Z,13.60
2022-12-18T17:55:15.911Z,12.57
2022-12-18T17:55:56.292Z,12.97
2022-12-18T17:56:29.984Z,12.30
2022-12-18T17:57:04.123Z,12.63
2022-12-18T17:57:37.643Z,12.63
2022-12-18T17:58:11.017Z,13.20
2022-12-18T17:58:45.037Z,13.87
2022-12-18T18:00:19.193Z,14.30
2022-12-18T18:00:53.018Z,14.47
2022-12-18T18:01:27.600Z,15.00
2022-12-18T18:02:01.162Z,14.40
2022-12-18T18:02:34.810Z,14.37
2022-12-18T18:03:09.592Z,14.00
2022-12-18T18:03:44.154Z,13.73
2022-12-18T18:04:18.101Z,14.67
2022-12-18T18:04:51.483Z,14.23
2022-12-18T18:05:24.789Z,14.60
2022-12-18T18:06:00.022Z,14.03
2022-12-18T18:06:33.971Z,14.40
2022-12-18T18:07:10.077Z,13.27
2022-12-18T18:07:43.418Z,13.53
2022-12-18T18:08:16.749Z,13.97
2022-12-18T18:08:50.117Z,14.07
2022-12-18T18:09:23.489Z,14.03
2022-12-18T18:09:56.818Z,13.80
2022-12-18T18:10:30.116Z,13.27
2022-12-18T18:11:28.777Z,12.97
2022-12-18T18:12:20.353Z,14.17
2022-12-18T18:13:11.922Z,13.20
2022-12-18T18:14:01.247Z,12.97
2022-12-18T18:14:34.856Z,13.73
2022-12-18T18:15:08.710Z,13.50
2022-12-18T18:15:42.723Z,13.80
2022-12-18T18:16:16.087Z,13.87
2022-12-18T18:16:52.531Z,13.70
2022-12-18T18:17:25.871Z,14.40
2022-12-18T18:17:59.187Z,13.77
2022-12-18T18:19:34.723Z,15.37
2022-12-18T18:20:07.651Z,15.67
2022-12-18T18:20:41.206Z,14.73
2022-12-18T18:21:14.138Z,13.97
2022-12-18T18:21:49.815Z,13.57
2022-12-18T18:22:23.503Z,13.97
2022-12-18T18:22:57.332Z,14.13
2022-12-18T18:24:47.197Z,13.97
2022-12-18T18:26:11.643Z,13.40
2022-12-18T18:26:44.465Z,13.77
2022-12-18T18:27:17.343Z,13.40
2022-12-18T18:27:50.169Z,12.87
2022-12-18T18:28:23.017Z,13.27
2022-12-18T18:28:55.789Z,13.20
2022-12-18T18:29:32.599Z,12.80
2022-12-18T18:30:53.302Z,13.30
2022-12-18T18:31:28.518Z,13.43
2022-12-18T18:32:02.396Z,12.83
2022-12-18T18:32:40.135Z,12.80
2022-12-18T18:33:14.934Z,12.87
2022-12-18T18:33:51.441Z,13.10
2022-12-18T18:34:27.460Z,13.17
2022-12-18T18:35:01.022Z,12.43
2022-12-18T18:47:00.354Z,15.37
2022-12-18T18:47:35.281Z,15.90
2022-12-18T18:48:08.855Z,14.53
2022-12-18T18:48:43.749Z,13.67
2022-12-18T18:49:17.568Z,13.40
2022-12-18T18:49:51.107Z,12.93
2022-12-18T18:50:24.647Z,13.33
2022-12-18T18:51:21.804Z,13.97
2022-12-18T18:53:19.905Z,13.63
2022-12-18T18:53:54.333Z,12.77
2022-12-18T18:54:28.212Z,13.30
2022-12-18T18:55:13.271Z,12.97
2022-12-18T18:55:55.152Z,11.67
2022-12-18T18:57:30.966Z,12.90
2022-12-18T18:59:02.290Z,12.37
2022-12-18T18:59:35.597Z,12.60
2022-12-18T19:00:10.344Z,13.33
2022-12-18T19:00:44.065Z,12.67
2022-12-18T19:01:19.949Z,12.40
2022-12-18T19:01:53.434Z,12.87
2022-12-18T19:02:26.972Z,12.00
2022-12-18T19:03:00.775Z,12.30
2022-12-18T19:03:35.160Z,12.53
2022-12-18T19:04:08.480Z,12.23
2022-12-18T19:04:45.731Z,12.43
2022-12-18T19:05:20.138Z,11.73
2022-12-18T19:05:56.382Z,12.13
2022-12-18T19:06:30.029Z,12.43
2022-12-18T19:07:04.621Z,11.87
2022-12-18T19:07:37.947Z,12.93
2022-12-18T19:08:11.259Z,13.10
2022-12-18T19:08:46.896Z,12.93
2022-12-18T19:09:20.193Z,12.03
2022-12-18T19:09:54.629Z,12.77
2022-12-18T19:10:27.941Z,11.43
2022-12-18T19:11:02.950Z,11.43
2022-12-18T19:13:29.926Z,11.67
2022-12-18T19:14:06.902Z,11.07
2022-12-18T19:14:40.261Z,11.53
2022-12-18T19:15:14.138Z,11.50
2022-12-18T19:15:47.850Z,11.50
2022-12-18T19:16:21.321Z,11.90
2022-12-18T19:16:56.926Z,12.03
2022-12-18T19:17:31.627Z,11.97
2022-12-18T19:18:05.360Z,11.53
2022-12-18T19:18:39.105Z,11.53
2022-12-18T19:19:13.548Z,11.23
2022-12-18T19:19:47.038Z,11.50
2022-12-18T19:20:20.368Z,11.67
2022-12-18T19:21:01.393Z,11.90
2022-12-18T19:21:35.774Z,12.43
2022-12-18T19:22:10.071Z,11.73
2022-12-18T19:22:43.384Z,12.07
2022-12-18T19:23:19.362Z,11.63
2022-12-18T19:23:52.676Z,11.43
2022-12-18T19:25:21.759Z,12.73
2022-12-18T19:26:10.268Z,11.60
2022-12-18T19:26:48.822Z,11.23
2022-12-18T19:27:22.314Z,10.87
2022-12-18T19:27:55.827Z,11.13
2022-12-18T19:28:29.741Z,11.57
2022-12-18T19:29:08.128Z,11.50
2022-12-18T19:29:41.907Z,12.60
2022-12-18T19:31:37.447Z,11.05
2022-12-18T19:32:17.766Z,12.15
2022-12-18T19:33:05.517Z,12.35
2022-12-18T19:34:59.618Z,16.05
2022-12-18T19:36:20.177Z,13.35
2022-12-18T19:40:16.700Z,16.20
2022-12-18T19:40:56.714Z,11.90
2022-12-18T19:41:36.591Z,11.45
2022-12-18T19:43:09.527Z,10.17
2022-12-18T19:43:43.635Z,11.60
2022-12-18T19:44:19.335Z,11.43
2022-12-18T19:44:53.396Z,11.53
2022-12-18T19:45:27.497Z,11.60
2022-12-18T19:46:01.577Z,10.87
2022-12-18T19:46:36.341Z,10.93
2022-12-18T19:47:16.002Z,11.40
2022-12-18T19:47:50.066Z,11.57
2022-12-18T19:48:24.102Z,11.73
2022-12-18T19:49:00.004Z,11.27
2022-12-18T19:49:34.962Z,11.70
2022-12-18T19:50:09.984Z,11.37
2022-12-18T19:50:44.090Z,11.20
2022-12-18T19:51:23.759Z,11.70
2022-12-18T19:51:57.837Z,11.20
2022-12-18T19:58:57.375Z,47.73
2022-12-18T19:59:32.139Z,46.47
2022-12-18T20:00:07.432Z,45.87
2022-12-18T20:00:42.313Z,46.83
2022-12-18T20:01:17.942Z,44.63
2022-12-18T20:01:54.831Z,43.63
2022-12-18T20:02:31.766Z,44.93
2022-12-18T20:03:17.642Z,47.00
2022-12-18T20:03:58.955Z,45.73
2022-12-18T20:04:34.717Z,46.17
2022-12-18T20:05:11.775Z,45.53
2022-12-18T20:05:46.631Z,46.30
2022-12-18T20:06:31.772Z,46.93
2022-12-18T20:07:06.638Z,48.83
2022-12-18T20:07:41.778Z,48.60
2022-12-18T20:08:18.114Z,49.37
2022-12-18T20:08:54.001Z,48.27
2022-12-18T20:09:33.089Z,49.00
2022-12-18T20:10:12.291Z,49.90
2022-12-18T20:10:49.934Z,50.53
2022-12-18T20:11:24.887Z,50.97
2022-12-18T20:11:59.760Z,50.93
2022-12-18T20:12:34.834Z,52.93
2022-12-18T20:13:09.688Z,53.60
2022-12-18T20:13:45.008Z,53.17
2022-12-18T20:14:22.943Z,52.07
2022-12-18T20:16:20.115Z,47.33
2022-12-18T20:16:55.115Z,49.47
2022-12-18T20:17:30.469Z,50.87
2022-12-18T20:19:27.252Z,52.03
2022-12-18T20:20:02.027Z,52.90
2022-12-18T20:20:36.987Z,52.17
2022-12-18T20:21:14.057Z,52.53
2022-12-18T20:21:49.261Z,53.70
2022-12-18T20:22:24.133Z,53.87
2022-12-18T20:22:59.070Z,53.17
2022-12-18T20:23:33.955Z,54.33
2022-12-18T20:24:12.053Z,56.20
2022-12-18T20:24:47.009Z,55.70
2022-12-18T20:25:24.411Z,55.80
2022-12-18T20:25:59.299Z,54.70
2022-12-18T20:26:34.204Z,55.97
2022-12-18T20:27:14.046Z,57.60
2022-12-18T20:27:50.429Z,57.13
2022-12-18T20:28:25.728Z,55.17
2022-12-18T20:29:00.771Z,56.10
2022-12-18T20:29:35.637Z,55.23
2022-12-18T20:30:11.269Z,57.47
2022-12-18T20:30:46.157Z,57.73
2022-12-18T20:31:21.130Z,56.80
2022-12-18T20:31:56.060Z,57.97
2022-12-18T20:32:36.814Z,57.23
2022-12-18T20:33:12.046Z,58.27
2022-12-18T20:33:48.713Z,60.03
2022-12-18T20:34:26.020Z,55.67
2022-12-18T20:35:00.994Z,57.00
2022-12-18T20:35:38.954Z,57.63
2022-12-18T20:36:15.488Z,57.90
2022-12-18T20:36:51.269Z,55.90
2022-12-18T20:37:26.190Z,53.97
2022-12-18T20:38:02.160Z,54.73
2022-12-18T20:38:39.597Z,56.17
2022-12-18T20:39:16.830Z,57.77
2022-12-18T20:39:53.719Z,55.50
2022-12-18T20:40:29.024Z,55.67
2022-12-18T20:42:25.605Z,55.50
2022-12-18T20:43:00.622Z,57.90
2022-12-18T20:43:35.543Z,57.20
2022-12-18T20:44:22.348Z,58.93
2022-12-18T20:44:58.248Z,59.13
2022-12-18T20:45:33.145Z,59.00
2022-12-18T20:46:09.715Z,60.10
2022-12-18T20:46:44.647Z,60.93
2022-12-18T20:47:19.519Z,59.93
2022-12-18T20:48:14.568Z,58.27
2022-12-18T20:48:49.484Z,60.30
2022-12-18T20:49:25.195Z,62.87
2022-12-18T20:50:02.552Z,60.03
2022-12-18T20:50:37.507Z,60.30
2022-12-18T20:51:15.291Z,61.07
2022-12-18T20:51:54.879Z,59.80
2022-12-18T20:52:29.779Z,58.03
2022-12-18T20:53:05.019Z,62.60
2022-12-18T20:53:41.801Z,62.07
2022-12-18T20:54:17.568Z,62.30
2022-12-18T20:54:52.473Z,61.50
2022-12-18T20:55:27.350Z,61.83
2022-12-18T20:56:02.959Z,60.17
2022-12-18T20:56:37.817Z,59.80
2022-12-18T20:57:12.695Z,60.97
2022-12-18T20:57:47.812Z,59.10
2022-12-18T20:58:22.721Z,58.67
2022-12-18T20:58:58.287Z,59.93
2022-12-18T20:59:33.225Z,60.33
2022-12-18T21:00:08.941Z,61.60
2022-12-18T21:00:45.103Z,60.23
2022-12-18T21:01:23.000Z,60.53
2022-12-18T21:01:58.277Z,59.57
2022-12-18T21:02:33.427Z,61.33
2022-12-18T21:03:08.628Z,64.40
2022-12-18T21:03:44.201Z,62.73
2022-12-18T21:04:19.743Z,60.90
2022-12-18T21:04:55.314Z,63.30
2022-12-18T21:05:30.183Z,63.63
2022-12-18T21:06:05.076Z,63.87
2022-12-18T21:06:40.174Z,65.13
2022-12-18T21:07:15.121Z,66.77
2022-12-18T21:07:50.047Z,65.23
2022-12-18T21:08:24.928Z,63.00
2022-12-18T21:08:59.849Z,63.73
2022-12-18T21:09:37.538Z,63.87
2022-12-18T21:10:13.394Z,65.37
2022-12-18T21:10:48.281Z,65.93
2022-12-18T21:11:41.572Z,65.30
2022-12-18T21:12:44.097Z,64.77
2022-12-18T21:13:24.197Z,66.67
2022-12-18T21:13:59.205Z,64.93
2022-12-18T21:14:34.142Z,65.70
2022-12-18T21:15:10.563Z,65.23
2022-12-18T21:15:45.447Z,65.80
2022-12-18T21:16:20.361Z,64.10
2022-12-18T21:16:55.278Z,64.40
2022-12-18T21:17:30.341Z,66.90
2022-12-18T21:18:11.419Z,68.70
2022-12-18T21:18:46.304Z,68.30
2022-12-18T21:19:24.369Z,66.37
2022-12-18T21:19:59.891Z,65.63
2022-12-18T21:20:35.114Z,68.33
2022-12-18T21:21:10.187Z,69.53
2022-12-18T21:21:45.177Z,69.17
2022-12-18T21:22:20.160Z,68.87
2022-12-18T21:22:57.326Z,68.63
2022-12-18T21:23:37.892Z,68.50
2022-12-18T21:24:12.881Z,68.70
2022-12-18T21:24:47.750Z,67.23
2022-12-18T21:25:22.619Z,68.47
2022-12-18T21:26:08.247Z,71.13
2022-12-18T21:26:46.177Z,70.87
2022-12-18T21:27:21.614Z,71.03
2022-12-18T21:27:56.651Z,69.83
2022-12-18T21:28:31.672Z,67.77
2022-12-18T21:29:11.533Z,70.03
2022-12-18T21:29:47.620Z,74.70
2022-12-18T21:30:22.709Z,74.37
2022-12-18T21:30:58.200Z,74.13
2022-12-18T21:31:35.487Z,73.10
2022-12-18T21:32:10.907Z,72.30
2022-12-18T21:32:45.823Z,70.50
2022-12-18T21:33:20.691Z,72.07
2022-12-18T21:33:59.751Z,70.63
2022-12-18T21:34:37.157Z,70.83
2022-12-18T21:35:12.036Z,71.23
2022-12-18T21:35:46.914Z,71.93
2022-12-18T21:36:21.792Z,70.93
2022-12-18T21:36:57.871Z,71.50
2022-12-18T21:37:33.377Z,74.53
2022-12-18T21:38:10.150Z,74.60
2022-12-18T21:38:45.022Z,70.43
2022-12-18T21:39:20.128Z,70.17
2022-12-18T21:39:57.407Z,75.03
2022-12-18T21:40:32.420Z,75.10
2022-12-18T21:41:10.630Z,73.90
2022-12-18T21:42:04.031Z,74.40
2022-12-18T21:42:57.772Z,77.93
2022-12-18T21:43:50.828Z,74.53
2022-12-18T21:44:25.749Z,74.57
2022-12-18T21:45:00.633Z,77.90
2022-12-18T21:45:35.504Z,75.80
2022-12-18T21:46:10.494Z,78.90
2022-12-18T21:48:06.799Z,76.47
2022-12-18T21:48:43.920Z,75.27
2022-12-18T21:49:19.250Z,75.23
2022-12-18T21:49:54.162Z,76.33
2022-12-18T21:50:29.038Z,77.03
2022-12-18T21:51:03.924Z,78.33
2022-12-18T21:51:41.561Z,75.77
2022-12-18T21:52:16.418Z,77.57
2022-12-18T21:52:51.305Z,78.10
2022-12-18T21:53:26.188Z,78.83
2022-12-18T21:54:01.138Z,78.50
2022-12-18T21:54:36.095Z,74.40
2022-12-18T21:55:11.094Z,75.37
2022-12-18T21:55:45.984Z,79.67
2022-12-18T21:56:20.898Z,79.53
2022-12-18T21:56:59.200Z,77.40
2022-12-18T21:57:34.074Z,77.47
2022-12-18T21:58:08.936Z,77.50
2022-12-18T21:58:56.741Z,80.13
2022-12-18T21:59:32.382Z,81.63
2022-12-18T22:00:08.328Z,80.97
2022-12-18T22:00:48.340Z,80.80
2022-12-18T22:01:23.690Z,81.73
2022-12-18T22:02:00.371Z,78.00
2022-12-18T22:02:35.653Z,81.47
2022-12-18T22:03:17.658Z,82.07
2022-12-18T22:03:53.888Z,79.33
2022-12-18T22:04:29.032Z,80.97
2022-12-18T22:05:04.636Z,79.27
2022-12-18T22:05:39.991Z,78.93
2022-12-18T22:06:15.316Z,77.37
2022-12-18T22:06:50.722Z,79.60
2022-12-18T22:07:25.606Z,81.87
2022-12-18T22:08:00.495Z,79.47
2022-12-18T22:08:35.438Z,77.30
2022-12-18T22:10:36.672Z,77.07
2022-12-18T22:11:12.452Z,74.93
2022-12-18T22:11:47.817Z,75.70
2022-12-18T22:12:43.751Z,74.60
2022-12-18T22:13:19.996Z,76.13
2022-12-18T22:13:54.919Z,80.50
2022-12-18T22:14:29.857Z,75.83
2022-12-18T22:15:05.854Z,75.23
2022-12-18T22:15:40.809Z,76.10
2022-12-18T22:16:15.809Z,74.83
2022-12-18T22:16:50.831Z,75.03
2022-12-18T22:17:27.490Z,74.43
2022-12-18T22:18:03.009Z,76.37
2022-12-18T22:18:37.888Z,74.50
2022-12-18T22:19:12.850Z,73.57
2022-12-18T22:19:49.898Z,78.13
2022-12-18T22:20:24.760Z,78.37
2022-12-18T22:21:05.033Z,74.30
2022-12-18T22:21:41.312Z,74.57
2022-12-18T22:22:16.180Z,72.73
2022-12-18T22:22:52.334Z,74.47
2022-12-18T22:23:27.224Z,74.60
2022-12-18T22:24:13.709Z,73.83
2022-12-18T22:24:48.635Z,74.63
2022-12-18T22:25:23.511Z,77.97
2022-12-18T22:25:58.375Z,76.40
2022-12-18T22:26:39.503Z,79.47
2022-12-18T22:27:15.172Z,76.17
2022-12-18T22:28:12.820Z,76.33
2022-12-18T22:29:06.140Z,81.83
2022-12-18T22:29:59.242Z,82.33
2022-12-18T22:30:34.117Z,78.50
2022-12-18T22:31:09.851Z,77.40
2022-12-18T22:31:44.822Z,78.00
2022-12-18T22:32:30.496Z,84.20
2022-12-18T22:33:06.060Z,81.40
2022-12-18T22:33:40.935Z,80.73
2022-12-18T22:34:19.390Z,78.43
2022-12-18T22:34:59.413Z,80.33
2022-12-18T22:35:38.252Z,80.67
2022-12-18T22:36:13.748Z,80.70
2022-12-18T22:36:51.885Z,81.30
2022-12-18T22:37:26.791Z,80.53
2022-12-18T22:38:01.843Z,79.70
2022-12-18T22:38:36.824Z,82.83
2022-12-18T22:39:16.627Z,84.47
2022-12-18T22:39:51.570Z,83.47
2022-12-18T22:40:27.548Z,86.13
2022-12-18T22:41:02.515Z,84.30
2022-12-18T22:41:37.390Z,84.63
2022-12-18T22:42:12.284Z,85.20
2022-12-18T22:42:47.213Z,83.90
2022-12-18T22:43:25.421Z,83.93
2022-12-18T22:44:00.337Z,83.57
2022-12-18T22:44:35.259Z,83.17
2022-12-18T22:45:10.530Z,84.00
2022-12-18T22:45:47.897Z,87.97
2022-12-18T22:46:23.120Z,84.27
2022-12-18T22:47:05.686Z,85.30
2022-12-18T22:47:42.041Z,82.70
2022-12-18T22:48:17.010Z,84.87
2022-12-18T22:48:52.057Z,85.30
2022-12-18T22:49:27.286Z,86.10
2022-12-18T22:50:02.170Z,84.50
2022-12-18T22:50:37.081Z,87.07
2022-12-18T22:51:18.535Z,87.47
2022-12-18T22:51:54.083Z,88.07
2022-12-18T22:52:28.980Z,87.77
2022-12-18T22:53:03.844Z,90.70
2022-12-18T22:53:38.730Z,91.30
2022-12-18T22:54:14.645Z,90.13
2022-12-18T22:54:49.541Z,88.87
2022-12-18T22:56:47.741Z,95.57
2022-12-18T22:57:23.317Z,88.97
2022-12-18T22:57:58.226Z,88.27
2022-12-18T22:58:33.115Z,90.73
2022-12-18T23:00:27.576Z,87.77
2022-12-18T23:01:02.330Z,86.83
2022-12-18T23:01:37.331Z,86.83
2022-12-18T23:02:13.977Z,88.13
2022-12-18T23:02:52.124Z,89.20
2022-12-18T23:03:31.507Z,89.57
2022-12-18T23:04:06.401Z,86.93
2022-12-18T23:04:41.268Z,86.67
2022-12-18T23:05:16.189Z,88.77
2022-12-18T23:05:51.077Z,86.07
2022-12-18T23:06:28.616Z,87.70
2022-12-18T23:07:03.504Z,87.70
2022-12-18T23:07:38.392Z,89.07
2022-12-18T23:08:13.723Z,90.17
2022-12-18T23:08:52.960Z,87.53
2022-12-18T23:09:30.705Z,87.13
2022-12-18T23:10:05.782Z,86.83
2022-12-18T23:10:40.683Z,86.87
2022-12-18T23:12:34.846Z,87.90
2022-12-18T23:13:12.238Z,85.37
2022-12-18T23:13:47.277Z,87.00
2022-12-18T23:14:22.147Z,88.00
2022-12-18T23:14:57.038Z,85.13
2022-12-18T23:15:31.947Z,84.53
2022-12-18T23:16:10.811Z,86.57
2022-12-18T23:16:45.733Z,87.30
2022-12-18T23:17:22.409Z,88.63
2022-12-18T23:18:00.955Z,85.73
2022-12-18T23:18:36.469Z,84.80
2022-12-18T23:19:11.352Z,87.70
2022-12-18T23:19:49.271Z,85.07
2022-12-18T23:20:24.553Z,81.60
2022-12-18T23:20:59.481Z,84.07
2022-12-18T23:21:34.590Z,82.57
2022-12-18T23:22:11.970Z,82.03
2022-12-18T23:22:46.919Z,83.97
2022-12-18T23:23:21.821Z,87.97
2022-12-18T23:23:56.718Z,87.70
2022-12-18T23:24:32.775Z,86.10
2022-12-18T23:25:07.767Z,88.27
2022-12-18T23:25:42.649Z,89.97
2022-12-18T23:26:20.360Z,92.57
2022-12-18T23:26:55.286Z,91.03
2022-12-18T23:27:30.274Z,92.37
2022-12-18T23:28:05.258Z,93.40
2022-12-18T23:28:40.220Z,91.63
2022-12-18T23:29:15.098Z,92.40
2022-12-18T23:29:49.974Z,91.90
2022-12-18T23:30:26.958Z,94.00
2022-12-18T23:31:18.290Z,93.00
2022-12-18T23:31:53.250Z,96.37
2022-12-18T23:32:28.155Z,93.37
2022-12-18T23:33:03.040Z,95.53
2022-12-18T23:33:38.063Z,95.20
2022-12-18T23:34:14.162Z,100.40
2022-12-18T23:34:49.032Z,97.23
2022-12-18T23:35:23.925Z,95.17
2022-12-18T23:36:04.748Z,96.40
2022-12-18T23:36:45.637Z,94.87
2022-12-18T23:37:49.763Z,95.67
2022-12-18T23:38:16.509Z,94.87
2022-12-18T23:38:55.917Z,94.87
2022-12-18T23:39:30.864Z,92.73
2022-12-18T23:41:30.880Z,95.37
2022-12-18T23:42:05.888Z,95.90
2022-12-18T23:42:40.765Z,94.13
2022-12-18T23:43:15.633Z,93.63
2022-12-18T23:43:50.809Z,95.13
2022-12-18T23:44:25.711Z,99.27
2022-12-18T23:45:00.596Z,97.37
2022-12-18T23:45:39.805Z,95.50
2022-12-18T23:46:18.859Z,96.23
2022-12-18T23:46:54.105Z,95.53
2022-12-18T23:47:29.034Z,94.03
2022-12-18T23:48:03.919Z,94.57
2022-12-18T23:48:38.800Z,96.83
2022-12-18T23:49:13.674Z,90.47
2022-12-18T23:49:48.547Z,94.67
2022-12-18T23:50:29.766Z,96.57
2022-12-18T23:51:09.100Z,95.00
2022-12-18T23:51:43.976Z,95.97
2022-12-18T23:52:18.849Z,93.57
2022-12-18T23:52:53.722Z,93.53
2022-12-18T23:53:28.608Z,94.87
2022-12-18T23:54:04.208Z,94.67
2022-12-18T23:54:39.980Z,92.50
2022-12-18T23:55:14.845Z,94.63
2022-12-18T23:55:50.103Z,93.23
2022-12-18T23:56:27.241Z,92.67
2022-12-18T23:57:02.265Z,90.50
2022-12-18T23:57:37.129Z,92.07
2022-12-18T23:58:21.791Z,94.47
2022-12-18T23:58:56.671Z,90.53
2022-12-18T23:59:31.604Z,93.80
